sensor_id;sensor_type;location;lat;lon;timestamp;temperature;humidity
5041;DHT22;2539;52.568;13.364;2022-07-29T00:00:18;15.00;99.90
5041;DHT22;2539;52.568;13.364;2022-07-29T00:02:44;15.00;99.90
5041;DHT22;2539;52.568;13.364;2022-07-29T00:05:12;14.90;99.90
5041;DHT22;2539;52.568;13.364;2022-07-29T00:07:39;14.90;99.90
5041;DHT22;2539;52.568;13.364;2022-07-29T00:10:05;14.90;99.90
5041;DHT22;2539;52.568;13.364;2022-07-29T00:12:31;14.90;99.90
5041;DHT22;2539;52.568;13.364;2022-07-29T00:14:57;14.90;99.90
5041;DHT22;2539;52.568;13.364;2022-07-29T00:17:24;14.90;99.90
5041;DHT22;2539;52.568;13.364;2022-07-29T00:19:50;14.90;99.90
5041;DHT22;2539;52.568;13.364;2022-07-29T00:22:17;14.80;99.90
5041;DHT22;2539;52.568;13.364;2022-07-29T00:24:43;14.80;99.90
5041;DHT22;2539;52.568;13.364;2022-07-29T00:27:09;14.70;99.90
5041;DHT22;2539;52.568;13.364;2022-07-29T00:29:35;14.70;99.90
5041;DHT22;2539;52.568;13.364;2022-07-29T00:32:02;14.70;99.90
5041;DHT22;2539;52.568;13.364;2022-07-29T00:34:28;14.70;99.90
5041;DHT22;2539;52.568;13.364;2022-07-29T00:37:12;14.80;99.90
5041;DHT22;2539;52.568;13.364;2022-07-29T00:39:38;14.70;99.90
5041;DHT22;2539;52.568;13.364;2022-07-29T00:42:05;14.70;99.90
5041;DHT22;2539;52.568;13.364;2022-07-29T00:44:36;14.60;99.90
5041;DHT22;2539;52.568;13.364;2022-07-29T00:47:02;14.70;99.90
5041;DHT22;2539;52.568;13.364;2022-07-29T00:49:29;14.70;99.90
5041;DHT22;2539;52.568;13.364;2022-07-29T00:51:55;14.70;99.90
5041;DHT22;2539;52.568;13.364;2022-07-29T00:54:21;14.70;99.90
5041;DHT22;2539;52.568;13.364;2022-07-29T00:56:47;14.70;99.90
5041;DHT22;2539;52.568;13.364;2022-07-29T00:59:12;14.60;99.90
5041;DHT22;2539;52.568;13.364;2022-07-29T01:01:38;14.60;99.90
5041;DHT22;2539;52.568;13.364;2022-07-29T01:04:05;14.60;99.90
5041;DHT22;2539;52.568;13.364;2022-07-29T01:06:32;14.60;99.90
5041;DHT22;2539;52.568;13.364;2022-07-29T01:08:59;14.60;99.90
5041;DHT22;2539;52.568;13.364;2022-07-29T01:11:26;14.60;99.90
5041;DHT22;2539;52.568;13.364;2022-07-29T01:13:53;14.60;99.90
5041;DHT22;2539;52.568;13.364;2022-07-29T01:16:32;14.50;99.90
5041;DHT22;2539;52.568;13.364;2022-07-29T01:19:07;14.60;99.90
5041;DHT22;2539;52.568;13.364;2022-07-29T01:21:50;14.50;99.90
5041;DHT22;2539;52.568;13.364;2022-07-29T01:27:38;14.50;99.90
5041;DHT22;2539;52.568;13.364;2022-07-29T01:30:07;14.40;99.90
5041;DHT22;2539;52.568;13.364;2022-07-29T01:32:37;14.40;99.90
5041;DHT22;2539;52.568;13.364;2022-07-29T01:35:20;14.40;99.90
5041;DHT22;2539;52.568;13.364;2022-07-29T01:37:59;14.40;99.90
5041;DHT22;2539;52.568;13.364;2022-07-29T01:40:37;14.30;99.90
5041;DHT22;2539;52.568;13.364;2022-07-29T01:43:23;14.30;99.90
5041;DHT22;2539;52.568;13.364;2022-07-29T01:45:56;14.20;99.90
5041;DHT22;2539;52.568;13.364;2022-07-29T01:48:40;14.10;99.90
5041;DHT22;2539;52.568;13.364;2022-07-29T01:51:29;14.10;99.90
5041;DHT22;2539;52.568;13.364;2022-07-29T01:56:51;13.90;99.90
5041;DHT22;2539;52.568;13.364;2022-07-29T01:59:18;13.90;99.90
5041;DHT22;2539;52.568;13.364;2022-07-29T02:01:46;13.90;99.90
5041;DHT22;2539;52.568;13.364;2022-07-29T02:04:14;13.90;99.90
5041;DHT22;2539;52.568;13.364;2022-07-29T02:06:42;13.90;99.90
5041;DHT22;2539;52.568;13.364;2022-07-29T02:09:10;13.80;99.90
5041;DHT22;2539;52.568;13.364;2022-07-29T02:11:38;13.80;99.90
5041;DHT22;2539;52.568;13.364;2022-07-29T02:14:05;13.80;99.90
5041;DHT22;2539;52.568;13.364;2022-07-29T02:16:33;13.80;99.90
5041;DHT22;2539;52.568;13.364;2022-07-29T02:19:01;13.80;99.90
5041;DHT22;2539;52.568;13.364;2022-07-29T02:21:30;13.80;99.90
5041;DHT22;2539;52.568;13.364;2022-07-29T02:23:59;13.80;99.90
5041;DHT22;2539;52.568;13.364;2022-07-29T02:26:28;13.90;99.90
5041;DHT22;2539;52.568;13.364;2022-07-29T02:28:56;13.90;99.90
5041;DHT22;2539;52.568;13.364;2022-07-29T02:31:26;13.90;99.90
5041;DHT22;2539;52.568;13.364;2022-07-29T02:33:53;13.90;99.90
5041;DHT22;2539;52.568;13.364;2022-07-29T02:36:22;13.90;99.90
5041;DHT22;2539;52.568;13.364;2022-07-29T02:38:50;13.90;99.90
5041;DHT22;2539;52.568;13.364;2022-07-29T02:41:50;14.00;99.90
5041;DHT22;2539;52.568;13.364;2022-07-29T02:44:24;14.00;99.90
5041;DHT22;2539;52.568;13.364;2022-07-29T02:46:57;14.00;99.90
5041;DHT22;2539;52.568;13.364;2022-07-29T02:49:36;14.10;99.90
5041;DHT22;2539;52.568;13.364;2022-07-29T02:52:14;14.10;99.90
5041;DHT22;2539;52.568;13.364;2022-07-29T02:54:56;14.10;99.90
5041;DHT22;2539;52.568;13.364;2022-07-29T02:57:33;14.10;99.90
5041;DHT22;2539;52.568;13.364;2022-07-29T03:00:05;14.20;99.90
5041;DHT22;2539;52.568;13.364;2022-07-29T03:02:35;14.20;99.90
5041;DHT22;2539;52.568;13.364;2022-07-29T03:05:04;14.30;99.90
5041;DHT22;2539;52.568;13.364;2022-07-29T03:07:31;14.20;99.90
5041;DHT22;2539;52.568;13.364;2022-07-29T03:09:58;14.30;99.90
5041;DHT22;2539;52.568;13.364;2022-07-29T03:12:25;14.30;99.90
5041;DHT22;2539;52.568;13.364;2022-07-29T03:14:53;14.30;99.90
5041;DHT22;2539;52.568;13.364;2022-07-29T03:17:19;14.40;99.90
5041;DHT22;2539;52.568;13.364;2022-07-29T03:19:47;14.40;99.90
5041;DHT22;2539;52.568;13.364;2022-07-29T03:22:14;14.40;99.90
5041;DHT22;2539;52.568;13.364;2022-07-29T03:24:40;14.50;99.90
5041;DHT22;2539;52.568;13.364;2022-07-29T03:27:06;14.50;99.90
5041;DHT22;2539;52.568;13.364;2022-07-29T03:29:33;14.40;99.90
5041;DHT22;2539;52.568;13.364;2022-07-29T03:31:59;14.40;99.90
5041;DHT22;2539;52.568;13.364;2022-07-29T03:34:25;14.40;99.90
5041;DHT22;2539;52.568;13.364;2022-07-29T03:36:51;14.40;99.90
5041;DHT22;2539;52.568;13.364;2022-07-29T03:39:23;14.30;99.90
5041;DHT22;2539;52.568;13.364;2022-07-29T03:41:55;14.30;99.90
5041;DHT22;2539;52.568;13.364;2022-07-29T03:44:22;14.30;99.90
5041;DHT22;2539;52.568;13.364;2022-07-29T03:46:51;14.30;99.90
5041;DHT22;2539;52.568;13.364;2022-07-29T03:49:21;14.40;99.90
5041;DHT22;2539;52.568;13.364;2022-07-29T03:51:47;14.40;99.90
5041;DHT22;2539;52.568;13.364;2022-07-29T03:54:13;14.40;99.90
5041;DHT22;2539;52.568;13.364;2022-07-29T03:56:43;14.40;99.90
5041;DHT22;2539;52.568;13.364;2022-07-29T03:59:13;14.40;99.90
5041;DHT22;2539;52.568;13.364;2022-07-29T04:01:41;14.40;99.90
5041;DHT22;2539;52.568;13.364;2022-07-29T04:04:08;14.40;99.90
5041;DHT22;2539;52.568;13.364;2022-07-29T04:06:42;14.40;99.90
5041;DHT22;2539;52.568;13.364;2022-07-29T04:09:09;14.40;99.90
5041;DHT22;2539;52.568;13.364;2022-07-29T04:11:36;14.40;99.90
5041;DHT22;2539;52.568;13.364;2022-07-29T04:14:04;14.40;99.90
5041;DHT22;2539;52.568;13.364;2022-07-29T04:16:30;14.50;99.90
5041;DHT22;2539;52.568;13.364;2022-07-29T04:18:56;14.50;99.90
5041;DHT22;2539;52.568;13.364;2022-07-29T04:21:23;14.60;99.90
5041;DHT22;2539;52.568;13.364;2022-07-29T04:23:49;14.60;99.90
5041;DHT22;2539;52.568;13.364;2022-07-29T04:26:19;14.70;99.90
5041;DHT22;2539;52.568;13.364;2022-07-29T04:28:46;14.70;99.90
5041;DHT22;2539;52.568;13.364;2022-07-29T04:31:13;14.80;99.90
5041;DHT22;2539;52.568;13.364;2022-07-29T04:33:39;15.00;99.90
5041;DHT22;2539;52.568;13.364;2022-07-29T04:36:05;15.20;99.90
5041;DHT22;2539;52.568;13.364;2022-07-29T04:38:32;15.20;99.90
5041;DHT22;2539;52.568;13.364;2022-07-29T04:40:58;15.30;99.90
5041;DHT22;2539;52.568;13.364;2022-07-29T04:43:24;15.20;99.90
5041;DHT22;2539;52.568;13.364;2022-07-29T04:45:50;15.20;99.90
5041;DHT22;2539;52.568;13.364;2022-07-29T04:48:16;15.20;99.90
5041;DHT22;2539;52.568;13.364;2022-07-29T04:50:42;15.20;99.90
5041;DHT22;2539;52.568;13.364;2022-07-29T04:53:10;15.30;99.90
5041;DHT22;2539;52.568;13.364;2022-07-29T04:55:36;15.20;99.90
5041;DHT22;2539;52.568;13.364;2022-07-29T04:58:02;15.30;99.90
5041;DHT22;2539;52.568;13.364;2022-07-29T05:00:28;15.30;99.90
5041;DHT22;2539;52.568;13.364;2022-07-29T05:02:55;15.40;99.90
5041;DHT22;2539;52.568;13.364;2022-07-29T05:05:21;15.50;99.90
5041;DHT22;2539;52.568;13.364;2022-07-29T05:07:47;15.70;99.90
5041;DHT22;2539;52.568;13.364;2022-07-29T05:10:14;15.80;99.90
5041;DHT22;2539;52.568;13.364;2022-07-29T05:12:40;16.00;99.90
5041;DHT22;2539;52.568;13.364;2022-07-29T05:15:06;16.30;99.90
5041;DHT22;2539;52.568;13.364;2022-07-29T05:17:33;16.40;99.90
5041;DHT22;2539;52.568;13.364;2022-07-29T05:19:59;16.70;99.90
5041;DHT22;2539;52.568;13.364;2022-07-29T05:22:25;17.00;99.90
5041;DHT22;2539;52.568;13.364;2022-07-29T05:24:52;17.20;99.90
5041;DHT22;2539;52.568;13.364;2022-07-29T05:27:18;17.30;99.90
5041;DHT22;2539;52.568;13.364;2022-07-29T05:29:44;17.40;99.90
5041;DHT22;2539;52.568;13.364;2022-07-29T05:32:10;17.50;99.90
5041;DHT22;2539;52.568;13.364;2022-07-29T05:34:36;17.40;99.90
5041;DHT22;2539;52.568;13.364;2022-07-29T05:37:02;17.30;99.90
5041;DHT22;2539;52.568;13.364;2022-07-29T05:39:27;17.20;99.90
5041;DHT22;2539;52.568;13.364;2022-07-29T05:41:53;17.00;99.90
5041;DHT22;2539;52.568;13.364;2022-07-29T05:44:19;17.00;99.90
5041;DHT22;2539;52.568;13.364;2022-07-29T05:46:45;17.00;99.90
5041;DHT22;2539;52.568;13.364;2022-07-29T05:49:11;17.10;99.90
5041;DHT22;2539;52.568;13.364;2022-07-29T05:51:37;17.10;99.90
5041;DHT22;2539;52.568;13.364;2022-07-29T05:54:04;17.10;99.90
5041;DHT22;2539;52.568;13.364;2022-07-29T05:56:30;17.20;99.90
5041;DHT22;2539;52.568;13.364;2022-07-29T05:58:56;17.20;99.90
5041;DHT22;2539;52.568;13.364;2022-07-29T06:01:22;17.30;99.90
5041;DHT22;2539;52.568;13.364;2022-07-29T06:03:49;17.40;99.90
5041;DHT22;2539;52.568;13.364;2022-07-29T06:06:15;17.50;99.90
5041;DHT22;2539;52.568;13.364;2022-07-29T06:08:41;17.60;99.90
5041;DHT22;2539;52.568;13.364;2022-07-29T06:11:07;17.80;99.90
5041;DHT22;2539;52.568;13.364;2022-07-29T06:13:34;17.90;99.90
5041;DHT22;2539;52.568;13.364;2022-07-29T06:16:00;18.00;99.90
5041;DHT22;2539;52.568;13.364;2022-07-29T06:18:27;18.10;99.90
5041;DHT22;2539;52.568;13.364;2022-07-29T06:20:53;18.20;99.90
5041;DHT22;2539;52.568;13.364;2022-07-29T06:23:20;18.50;99.90
5041;DHT22;2539;52.568;13.364;2022-07-29T06:25:46;18.80;99.90
5041;DHT22;2539;52.568;13.364;2022-07-29T06:28:13;18.90;99.90
5041;DHT22;2539;52.568;13.364;2022-07-29T06:30:39;19.00;99.90
5041;DHT22;2539;52.568;13.364;2022-07-29T06:33:05;19.00;99.90
5041;DHT22;2539;52.568;13.364;2022-07-29T06:35:35;18.80;99.90
5041;DHT22;2539;52.568;13.364;2022-07-29T06:38:02;19.00;99.90
5041;DHT22;2539;52.568;13.364;2022-07-29T06:40:29;19.10;99.90
5041;DHT22;2539;52.568;13.364;2022-07-29T06:43:13;19.10;99.90
5041;DHT22;2539;52.568;13.364;2022-07-29T06:45:39;19.00;99.90
5041;DHT22;2539;52.568;13.364;2022-07-29T06:48:06;19.00;99.90
5041;DHT22;2539;52.568;13.364;2022-07-29T06:50:32;19.00;99.90
5041;DHT22;2539;52.568;13.364;2022-07-29T06:52:57;19.10;99.90
5041;DHT22;2539;52.568;13.364;2022-07-29T06:55:24;19.20;99.90
5041;DHT22;2539;52.568;13.364;2022-07-29T06:57:50;19.30;99.90
5041;DHT22;2539;52.568;13.364;2022-07-29T07:00:17;19.40;99.90
5041;DHT22;2539;52.568;13.364;2022-07-29T07:02:44;19.50;99.90
5041;DHT22;2539;52.568;13.364;2022-07-29T07:05:10;19.50;99.90
5041;DHT22;2539;52.568;13.364;2022-07-29T07:07:36;19.60;99.90
5041;DHT22;2539;52.568;13.364;2022-07-29T07:10:02;19.80;99.90
5041;DHT22;2539;52.568;13.364;2022-07-29T07:12:29;19.90;99.90
5041;DHT22;2539;52.568;13.364;2022-07-29T07:14:55;20.10;99.90
5041;DHT22;2539;52.568;13.364;2022-07-29T07:17:21;20.30;99.90
5041;DHT22;2539;52.568;13.364;2022-07-29T07:19:47;20.40;99.90
5041;DHT22;2539;52.568;13.364;2022-07-29T07:22:13;20.40;99.90
5041;DHT22;2539;52.568;13.364;2022-07-29T07:24:40;20.40;99.90
5041;DHT22;2539;52.568;13.364;2022-07-29T07:27:06;20.40;99.90
5041;DHT22;2539;52.568;13.364;2022-07-29T07:29:32;20.50;99.90
5041;DHT22;2539;52.568;13.364;2022-07-29T07:31:58;20.50;99.90
5041;DHT22;2539;52.568;13.364;2022-07-29T07:34:25;20.30;99.90
5041;DHT22;2539;52.568;13.364;2022-07-29T07:36:51;20.30;99.90
5041;DHT22;2539;52.568;13.364;2022-07-29T07:39:17;20.50;99.90
5041;DHT22;2539;52.568;13.364;2022-07-29T07:41:43;20.70;99.90
5041;DHT22;2539;52.568;13.364;2022-07-29T07:44:09;20.90;99.90
5041;DHT22;2539;52.568;13.364;2022-07-29T07:46:35;21.10;99.90
5041;DHT22;2539;52.568;13.364;2022-07-29T07:49:02;21.20;99.40
5041;DHT22;2539;52.568;13.364;2022-07-29T07:51:28;21.20;99.40
5041;DHT22;2539;52.568;13.364;2022-07-29T07:53:54;21.20;99.20
5041;DHT22;2539;52.568;13.364;2022-07-29T07:56:20;21.20;99.10
5041;DHT22;2539;52.568;13.364;2022-07-29T07:58:46;21.20;98.90
5041;DHT22;2539;52.568;13.364;2022-07-29T08:01:13;21.20;98.80
5041;DHT22;2539;52.568;13.364;2022-07-29T08:03:39;21.30;98.70
5041;DHT22;2539;52.568;13.364;2022-07-29T08:06:06;21.40;98.30
5041;DHT22;2539;52.568;13.364;2022-07-29T08:08:32;21.50;97.90
5041;DHT22;2539;52.568;13.364;2022-07-29T08:10:58;21.60;97.90
5041;DHT22;2539;52.568;13.364;2022-07-29T08:13:26;21.80;97.50
5041;DHT22;2539;52.568;13.364;2022-07-29T08:15:56;21.90;97.40
5041;DHT22;2539;52.568;13.364;2022-07-29T08:18:38;21.90;97.20
5041;DHT22;2539;52.568;13.364;2022-07-29T08:21:05;21.90;96.50
5041;DHT22;2539;52.568;13.364;2022-07-29T08:23:31;21.90;96.40
5041;DHT22;2539;52.568;13.364;2022-07-29T08:26:13;21.90;96.40
5041;DHT22;2539;52.568;13.364;2022-07-29T08:28:41;21.90;96.20
5041;DHT22;2539;52.568;13.364;2022-07-29T08:31:10;21.90;95.50
5041;DHT22;2539;52.568;13.364;2022-07-29T08:33:37;22.00;95.60
5041;DHT22;2539;52.568;13.364;2022-07-29T08:36:04;22.20;95.70
5041;DHT22;2539;52.568;13.364;2022-07-29T08:38:30;22.30;95.00
5041;DHT22;2539;52.568;13.364;2022-07-29T08:40:57;22.30;94.90
5041;DHT22;2539;52.568;13.364;2022-07-29T08:43:24;22.40;94.80
5041;DHT22;2539;52.568;13.364;2022-07-29T08:45:51;22.50;94.50
5041;DHT22;2539;52.568;13.364;2022-07-29T08:48:20;22.70;94.10
5041;DHT22;2539;52.568;13.364;2022-07-29T08:50:48;22.80;94.10
5041;DHT22;2539;52.568;13.364;2022-07-29T08:53:15;22.80;93.50
5041;DHT22;2539;52.568;13.364;2022-07-29T08:55:43;22.90;92.80
5041;DHT22;2539;52.568;13.364;2022-07-29T08:58:09;23.00;92.10
5041;DHT22;2539;52.568;13.364;2022-07-29T09:00:37;22.90;92.20
5041;DHT22;2539;52.568;13.364;2022-07-29T09:03:06;23.00;92.20
5041;DHT22;2539;52.568;13.364;2022-07-29T09:05:34;22.90;92.00
5041;DHT22;2539;52.568;13.364;2022-07-29T09:08:01;23.00;91.60
5041;DHT22;2539;52.568;13.364;2022-07-29T09:10:28;22.90;91.60
5041;DHT22;2539;52.568;13.364;2022-07-29T09:12:55;23.00;91.40
5041;DHT22;2539;52.568;13.364;2022-07-29T09:15:21;23.00;90.50
5041;DHT22;2539;52.568;13.364;2022-07-29T09:17:49;23.10;90.60
5041;DHT22;2539;52.568;13.364;2022-07-29T09:20:18;23.20;90.40
5041;DHT22;2539;52.568;13.364;2022-07-29T09:22:44;23.30;90.20
5041;DHT22;2539;52.568;13.364;2022-07-29T09:25:38;23.40;90.00
5041;DHT22;2539;52.568;13.364;2022-07-29T09:28:15;23.60;90.10
5041;DHT22;2539;52.568;13.364;2022-07-29T09:30:58;23.70;89.20
5041;DHT22;2539;52.568;13.364;2022-07-29T09:33:31;23.80;88.40
5041;DHT22;2539;52.568;13.364;2022-07-29T09:36:03;23.80;87.40
5041;DHT22;2539;52.568;13.364;2022-07-29T09:38:31;23.80;87.90
5041;DHT22;2539;52.568;13.364;2022-07-29T09:40:59;23.70;87.70
5041;DHT22;2539;52.568;13.364;2022-07-29T09:43:25;23.70;86.50
5041;DHT22;2539;52.568;13.364;2022-07-29T09:45:52;23.70;86.00
5041;DHT22;2539;52.568;13.364;2022-07-29T09:48:24;23.80;83.70
5041;DHT22;2539;52.568;13.364;2022-07-29T09:50:51;23.80;84.00
5041;DHT22;2539;52.568;13.364;2022-07-29T09:53:36;24.00;83.50
5041;DHT22;2539;52.568;13.364;2022-07-29T09:56:06;24.20;82.70
5041;DHT22;2539;52.568;13.364;2022-07-29T09:58:32;24.40;82.40
5041;DHT22;2539;52.568;13.364;2022-07-29T10:01:02;24.40;79.60
5041;DHT22;2539;52.568;13.364;2022-07-29T10:03:29;24.50;79.90
5041;DHT22;2539;52.568;13.364;2022-07-29T10:08:31;24.60;78.80
5041;DHT22;2539;52.568;13.364;2022-07-29T10:11:16;24.80;78.70
5041;DHT22;2539;52.568;13.364;2022-07-29T10:13:44;24.90;77.70
5041;DHT22;2539;52.568;13.364;2022-07-29T10:16:12;25.00;77.00
5041;DHT22;2539;52.568;13.364;2022-07-29T10:18:39;25.00;76.20
5041;DHT22;2539;52.568;13.364;2022-07-29T10:21:06;25.00;76.80
5041;DHT22;2539;52.568;13.364;2022-07-29T10:23:33;24.90;76.80
5041;DHT22;2539;52.568;13.364;2022-07-29T10:26:00;25.00;76.80
5041;DHT22;2539;52.568;13.364;2022-07-29T10:28:26;25.00;75.00
5041;DHT22;2539;52.568;13.364;2022-07-29T10:31:00;24.90;75.10
5041;DHT22;2539;52.568;13.364;2022-07-29T10:33:51;24.90;74.10
5041;DHT22;2539;52.568;13.364;2022-07-29T10:36:38;24.80;73.80
5041;DHT22;2539;52.568;13.364;2022-07-29T10:42:09;25.00;72.80
5041;DHT22;2539;52.568;13.364;2022-07-29T10:44:40;25.00;72.80
5041;DHT22;2539;52.568;13.364;2022-07-29T10:47:07;25.20;71.30
5041;DHT22;2539;52.568;13.364;2022-07-29T10:49:33;25.30;70.60
5041;DHT22;2539;52.568;13.364;2022-07-29T10:52:05;25.40;70.90
5041;DHT22;2539;52.568;13.364;2022-07-29T10:54:45;25.60;68.90
5041;DHT22;2539;52.568;13.364;2022-07-29T11:05:13;26.20;66.50
5041;DHT22;2539;52.568;13.364;2022-07-29T11:10:40;26.40;66.60
5041;DHT22;2539;52.568;13.364;2022-07-29T11:13:06;26.40;66.00
5041;DHT22;2539;52.568;13.364;2022-07-29T11:15:55;26.50;66.30
5041;DHT22;2539;52.568;13.364;2022-07-29T11:18:21;26.60;66.60
5041;DHT22;2539;52.568;13.364;2022-07-29T11:20:49;26.60;66.20
5041;DHT22;2539;52.568;13.364;2022-07-29T11:31:40;26.70;65.40
5041;DHT22;2539;52.568;13.364;2022-07-29T11:34:32;26.90;65.40
5041;DHT22;2539;52.568;13.364;2022-07-29T11:45:01;26.70;64.30
5041;DHT22;2539;52.568;13.364;2022-07-29T11:47:28;26.60;65.10
5041;DHT22;2539;52.568;13.364;2022-07-29T11:49:59;26.50;65.60
5041;DHT22;2539;52.568;13.364;2022-07-29T11:52:45;26.50;66.10
5041;DHT22;2539;52.568;13.364;2022-07-29T11:55:16;26.50;65.50
5041;DHT22;2539;52.568;13.364;2022-07-29T11:57:54;26.40;65.90
5041;DHT22;2539;52.568;13.364;2022-07-29T12:02:48;26.30;66.00
5041;DHT22;2539;52.568;13.364;2022-07-29T12:05:15;26.30;66.80
5041;DHT22;2539;52.568;13.364;2022-07-29T12:07:42;26.30;67.00
5041;DHT22;2539;52.568;13.364;2022-07-29T12:10:08;26.20;67.60
5041;DHT22;2539;52.568;13.364;2022-07-29T12:12:35;26.20;68.00
5041;DHT22;2539;52.568;13.364;2022-07-29T12:15:16;26.30;68.10
5041;DHT22;2539;52.568;13.364;2022-07-29T12:17:43;26.40;67.90
5041;DHT22;2539;52.568;13.364;2022-07-29T12:20:10;26.40;68.10
5041;DHT22;2539;52.568;13.364;2022-07-29T12:22:41;26.30;68.20
5041;DHT22;2539;52.568;13.364;2022-07-29T12:25:13;26.30;68.40
5041;DHT22;2539;52.568;13.364;2022-07-29T12:27:44;26.40;68.30
5041;DHT22;2539;52.568;13.364;2022-07-29T12:30:13;26.50;68.60
5041;DHT22;2539;52.568;13.364;2022-07-29T12:32:42;26.50;69.30
5041;DHT22;2539;52.568;13.364;2022-07-29T12:37:41;26.50;69.50
5041;DHT22;2539;52.568;13.364;2022-07-29T12:40:09;26.50;70.50
5041;DHT22;2539;52.568;13.364;2022-07-29T12:42:36;26.60;70.30
5041;DHT22;2539;52.568;13.364;2022-07-29T12:45:04;26.60;70.90
5041;DHT22;2539;52.568;13.364;2022-07-29T12:47:31;26.60;70.70
5041;DHT22;2539;52.568;13.364;2022-07-29T12:50:14;26.60;71.10
5041;DHT22;2539;52.568;13.364;2022-07-29T12:52:44;26.60;71.00
5041;DHT22;2539;52.568;13.364;2022-07-29T12:55:11;26.50;70.60
5041;DHT22;2539;52.568;13.364;2022-07-29T12:57:50;26.60;70.80
5041;DHT22;2539;52.568;13.364;2022-07-29T13:00:22;26.70;70.90
5041;DHT22;2539;52.568;13.364;2022-07-29T13:02:56;26.80;70.70
5041;DHT22;2539;52.568;13.364;2022-07-29T13:05:44;26.80;69.80
5041;DHT22;2539;52.568;13.364;2022-07-29T13:08:12;26.90;70.40
5041;DHT22;2539;52.568;13.364;2022-07-29T13:10:39;26.90;70.30
5041;DHT22;2539;52.568;13.364;2022-07-29T13:13:13;26.70;70.60
5041;DHT22;2539;52.568;13.364;2022-07-29T13:15:42;26.50;71.10
5041;DHT22;2539;52.568;13.364;2022-07-29T13:18:28;26.40;71.00
5041;DHT22;2539;52.568;13.364;2022-07-29T13:20:55;26.40;71.20
5041;DHT22;2539;52.568;13.364;2022-07-29T13:23:21;26.50;71.00
5041;DHT22;2539;52.568;13.364;2022-07-29T13:25:48;26.60;70.70
5041;DHT22;2539;52.568;13.364;2022-07-29T13:28:14;26.80;70.60
5041;DHT22;2539;52.568;13.364;2022-07-29T13:30:40;26.90;70.60
5041;DHT22;2539;52.568;13.364;2022-07-29T13:33:09;27.00;69.80
5041;DHT22;2539;52.568;13.364;2022-07-29T13:35:35;26.90;69.10
5041;DHT22;2539;52.568;13.364;2022-07-29T13:38:01;26.70;69.60
5041;DHT22;2539;52.568;13.364;2022-07-29T13:40:28;26.50;70.30
5041;DHT22;2539;52.568;13.364;2022-07-29T13:42:56;26.50;70.90
5041;DHT22;2539;52.568;13.364;2022-07-29T13:45:22;26.60;71.10
5041;DHT22;2539;52.568;13.364;2022-07-29T13:47:48;26.80;70.70
5041;DHT22;2539;52.568;13.364;2022-07-29T13:50:14;26.70;70.00
5041;DHT22;2539;52.568;13.364;2022-07-29T13:52:41;26.70;70.20
5041;DHT22;2539;52.568;13.364;2022-07-29T13:55:07;27.00;69.80
5041;DHT22;2539;52.568;13.364;2022-07-29T13:57:34;27.00;69.20
5041;DHT22;2539;52.568;13.364;2022-07-29T14:00:00;27.20;69.50
5041;DHT22;2539;52.568;13.364;2022-07-29T14:02:26;27.10;68.90
5041;DHT22;2539;52.568;13.364;2022-07-29T14:04:53;27.00;69.20
5041;DHT22;2539;52.568;13.364;2022-07-29T14:07:20;26.80;69.70
5041;DHT22;2539;52.568;13.364;2022-07-29T14:09:46;26.50;70.30
5041;DHT22;2539;52.568;13.364;2022-07-29T14:12:12;26.50;70.90
5041;DHT22;2539;52.568;13.364;2022-07-29T14:14:38;26.40;71.30
5041;DHT22;2539;52.568;13.364;2022-07-29T14:17:05;26.30;70.70
5041;DHT22;2539;52.568;13.364;2022-07-29T14:19:32;26.30;71.10
5041;DHT22;2539;52.568;13.364;2022-07-29T14:22:03;26.30;70.10
5041;DHT22;2539;52.568;13.364;2022-07-29T14:24:29;26.30;70.40
5041;DHT22;2539;52.568;13.364;2022-07-29T14:26:56;26.40;70.50
5041;DHT22;2539;52.568;13.364;2022-07-29T14:29:22;26.60;70.40
5041;DHT22;2539;52.568;13.364;2022-07-29T14:31:49;26.90;69.80
5041;DHT22;2539;52.568;13.364;2022-07-29T14:34:15;27.20;69.30
5041;DHT22;2539;52.568;13.364;2022-07-29T14:36:41;27.30;68.20
5041;DHT22;2539;52.568;13.364;2022-07-29T14:39:08;27.40;68.00
5041;DHT22;2539;52.568;13.364;2022-07-29T14:41:37;27.60;68.10
5041;DHT22;2539;52.568;13.364;2022-07-29T14:44:04;27.80;67.10
5041;DHT22;2539;52.568;13.364;2022-07-29T14:46:30;28.20;66.70
5041;DHT22;2539;52.568;13.364;2022-07-29T14:48:56;28.90;65.90
5041;DHT22;2539;52.568;13.364;2022-07-29T14:51:22;29.70;64.40
5041;DHT22;2539;52.568;13.364;2022-07-29T14:53:49;30.30;62.30
5041;DHT22;2539;52.568;13.364;2022-07-29T14:56:15;30.30;61.10
5041;DHT22;2539;52.568;13.364;2022-07-29T14:58:41;30.40;60.70
5041;DHT22;2539;52.568;13.364;2022-07-29T15:01:08;30.70;60.30
5041;DHT22;2539;52.568;13.364;2022-07-29T15:03:34;30.50;59.90
5041;DHT22;2539;52.568;13.364;2022-07-29T15:06:00;30.00;60.30
5041;DHT22;2539;52.568;13.364;2022-07-29T15:08:26;28.90;61.60
5041;DHT22;2539;52.568;13.364;2022-07-29T15:10:55;28.20;63.40
5041;DHT22;2539;52.568;13.364;2022-07-29T15:13:23;27.70;64.40
5041;DHT22;2539;52.568;13.364;2022-07-29T15:15:49;27.60;64.80
5041;DHT22;2539;52.568;13.364;2022-07-29T15:18:16;28.20;64.20
5041;DHT22;2539;52.568;13.364;2022-07-29T15:20:42;29.40;62.20
5041;DHT22;2539;52.568;13.364;2022-07-29T15:23:10;30.50;60.20
5041;DHT22;2539;52.568;13.364;2022-07-29T15:25:39;31.10;58.60
5041;DHT22;2539;52.568;13.364;2022-07-29T15:28:05;31.60;57.00
5041;DHT22;2539;52.568;13.364;2022-07-29T15:30:34;31.20;56.80
5041;DHT22;2539;52.568;13.364;2022-07-29T15:33:03;30.30;57.60
5041;DHT22;2539;52.568;13.364;2022-07-29T15:35:29;29.50;60.00
5041;DHT22;2539;52.568;13.364;2022-07-29T15:37:56;29.10;59.70
5041;DHT22;2539;52.568;13.364;2022-07-29T15:40:22;28.60;60.20
5041;DHT22;2539;52.568;13.364;2022-07-29T15:42:48;28.20;61.20
5041;DHT22;2539;52.568;13.364;2022-07-29T15:45:14;27.80;62.00
5041;DHT22;2539;52.568;13.364;2022-07-29T15:47:40;27.50;62.50
5041;DHT22;2539;52.568;13.364;2022-07-29T15:50:07;27.40;63.20
5041;DHT22;2539;52.568;13.364;2022-07-29T15:52:39;27.50;63.80
5041;DHT22;2539;52.568;13.364;2022-07-29T15:55:05;28.20;62.50
5041;DHT22;2539;52.568;13.364;2022-07-29T15:57:32;29.00;61.20
5041;DHT22;2539;52.568;13.364;2022-07-29T15:59:58;29.60;59.90
5041;DHT22;2539;52.568;13.364;2022-07-29T16:02:24;30.00;58.40
5041;DHT22;2539;52.568;13.364;2022-07-29T16:04:50;30.20;58.30
5041;DHT22;2539;52.568;13.364;2022-07-29T16:07:17;30.20;58.10
5041;DHT22;2539;52.568;13.364;2022-07-29T16:09:43;30.10;57.90
5041;DHT22;2539;52.568;13.364;2022-07-29T16:12:10;30.00;57.90
5041;DHT22;2539;52.568;13.364;2022-07-29T16:14:36;30.00;57.50
5041;DHT22;2539;52.568;13.364;2022-07-29T16:17:02;30.30;57.10
5041;DHT22;2539;52.568;13.364;2022-07-29T16:19:29;30.50;56.50
5041;DHT22;2539;52.568;13.364;2022-07-29T16:21:55;30.60;56.30
5041;DHT22;2539;52.568;13.364;2022-07-29T16:24:21;30.80;55.70
5041;DHT22;2539;52.568;13.364;2022-07-29T16:26:50;31.00;55.40
5041;DHT22;2539;52.568;13.364;2022-07-29T16:29:17;31.30;54.80
5041;DHT22;2539;52.568;13.364;2022-07-29T16:31:44;31.50;54.20
5041;DHT22;2539;52.568;13.364;2022-07-29T16:34:10;31.70;54.00
5041;DHT22;2539;52.568;13.364;2022-07-29T16:36:36;30.90;54.50